Terminal Aerodrome Forecast
Issued by NWS Jacksonville, FL

Home | Current Version | Previous Version | Text Only | Print | Product List | Glossary On
Versions: 1 2 3 4 5 6 7 8 9 10 11 12 13 14 15 16 17 18
000
FTUS42 KJAX 262300
TAFGNV
TAF
KGNV 262321Z 2700/2724 05002KT P6SM BKN035 BKN250
     FM270600 00000KT 6SM BR BKN035
      TEMPO 2708/2712 3SM BR SCT005
     FM271500 07005KT P6SM SCT030 BKN060=

USA.gov is the U.S. government's official web portal to all federal, state and local government web resources and services.